createdAt,value
2022-09-15T00:01:40.049Z,18.82
2022-09-15T00:04:11.441Z,18.83
2022-09-15T00:06:39.932Z,18.84
2022-09-15T00:09:10.235Z,18.84
2022-09-15T00:11:39.886Z,18.84
2022-09-15T00:14:09.280Z,18.82
2022-09-15T00:16:37.827Z,18.84
2022-09-15T00:19:06.737Z,18.88
2022-09-15T00:21:38.366Z,18.83
2022-09-15T00:24:07.571Z,18.77
2022-09-15T00:26:37.820Z,18.76
2022-09-15T00:29:06.927Z,18.76
2022-09-15T00:31:35.342Z,18.79
2022-09-15T00:34:04.972Z,18.79
2022-09-15T00:36:33.629Z,18.85
2022-09-15T00:39:02.081Z,18.88
2022-09-15T00:41:30.873Z,18.93
2022-09-15T00:44:03.243Z,18.98
2022-09-15T00:46:33.334Z,19.02
2022-09-15T00:49:06.192Z,19.05
2022-09-15T00:51:39.763Z,19.03
2022-09-15T00:54:13.648Z,18.98
2022-09-15T00:56:44.022Z,18.99
2022-09-15T00:59:18.207Z,19.02
2022-09-15T01:01:50.609Z,19.03
2022-09-15T01:04:18.970Z,19.02
2022-09-15T01:06:51.653Z,19.03
2022-09-15T01:09:24.914Z,19.05
2022-09-15T01:11:53.434Z,19.06
2022-09-15T01:14:23.059Z,19.06
2022-09-15T01:17:06.915Z,19.04
2022-09-15T01:20:08.123Z,19.07
2022-09-15T01:22:45.128Z,19.04
2022-09-15T01:25:28.056Z,19.01
2022-09-15T01:28:37.350Z,18.96
2022-09-15T01:31:14.051Z,18.91
2022-09-15T01:33:49.183Z,18.86
2022-09-15T01:36:23.944Z,18.83
2022-09-15T01:39:01.153Z,18.84
2022-09-15T01:41:32.115Z,18.86
2022-09-15T01:44:06.372Z,18.89
2022-09-15T01:46:38.534Z,18.91
2022-09-15T01:49:10.539Z,18.89
2022-09-15T01:51:41.058Z,18.93
2022-09-15T01:54:11.698Z,18.97
2022-09-15T01:56:40.905Z,18.99
2022-09-15T01:59:10.187Z,19.01
2022-09-15T02:01:44.754Z,19.03
2022-09-15T02:04:18.352Z,19.04
2022-09-15T02:06:54.490Z,19.04
2022-09-15T02:09:26.322Z,19.03
2022-09-15T02:12:03.291Z,18.97
2022-09-15T02:14:48.165Z,18.92
2022-09-15T02:17:21.570Z,18.85
2022-09-15T02:19:53.310Z,18.81
2022-09-15T02:22:27.857Z,18.69
2022-09-15T02:25:02.902Z,18.67
2022-09-15T02:27:36.316Z,18.65
2022-09-15T02:30:11.766Z,18.64
2022-09-15T02:32:46.691Z,18.65
2022-09-15T02:35:16.685Z,18.64
2022-09-15T02:37:46.189Z,18.61
2022-09-15T02:40:14.758Z,18.60
2022-09-15T02:42:54.310Z,18.62
2022-09-15T02:45:23.122Z,18.61
2022-09-15T02:47:52.850Z,18.60
2022-09-15T02:50:21.737Z,18.60
2022-09-15T02:52:50.030Z,18.63
2022-09-15T02:55:18.625Z,18.65
2022-09-15T02:57:47.169Z,18.66
2022-09-15T03:00:19.941Z,18.65
2022-09-15T03:02:51.297Z,18.62
2022-09-15T03:05:23.938Z,18.56
2022-09-15T03:07:53.312Z,18.46
2022-09-15T03:10:23.060Z,18.48
2022-09-15T03:12:53.210Z,18.55
2022-09-15T03:15:24.557Z,18.56
2022-09-15T03:17:54.092Z,18.58
2022-09-15T03:20:27.364Z,18.56
2022-09-15T03:22:55.951Z,18.58
2022-09-15T03:25:26.885Z,18.61
2022-09-15T03:27:55.316Z,18.59
2022-09-15T03:30:24.155Z,18.58
2022-09-15T03:32:52.528Z,18.58
2022-09-15T03:35:20.940Z,18.61
2022-09-15T03:37:51.199Z,18.60
2022-09-15T03:40:19.546Z,18.57
2022-09-15T03:42:48.792Z,18.54
2022-09-15T03:45:17.252Z,18.50
2022-09-15T03:47:45.608Z,18.57
2022-09-15T03:50:14.016Z,18.59
2022-09-15T03:52:42.996Z,18.60
2022-09-15T03:55:13.095Z,18.62
2022-09-15T03:57:41.475Z,18.64
2022-09-15T04:00:11.319Z,18.62
2022-09-15T04:02:39.657Z,18.63
2022-09-15T04:05:13.331Z,18.62
2022-09-15T04:07:42.210Z,18.61
2022-09-15T04:10:12.599Z,18.60
2022-09-15T04:12:42.084Z,18.58
2022-09-15T04:15:11.405Z,18.55
2022-09-15T04:17:41.765Z,18.50
2022-09-15T04:20:11.196Z,18.47
2022-09-15T04:22:39.648Z,18.42
2022-09-15T04:25:09.954Z,18.42
2022-09-15T04:27:40.526Z,18.43
2022-09-15T04:30:10.229Z,18.39
2022-09-15T04:32:38.570Z,18.36
2022-09-15T04:35:07.837Z,18.30
2022-09-15T04:37:36.237Z,18.33
2022-09-15T04:40:04.997Z,18.37
2022-09-15T04:42:33.852Z,18.39
2022-09-15T04:45:03.699Z,18.41
2022-09-15T04:47:32.089Z,18.45
2022-09-15T04:50:00.409Z,18.47
2022-09-15T04:52:28.720Z,18.48
2022-09-15T04:54:57.387Z,18.49
2022-09-15T04:57:25.731Z,18.47
2022-09-15T04:59:54.139Z,18.40
2022-09-15T05:02:23.957Z,18.39
2022-09-15T05:04:52.451Z,18.43
2022-09-15T05:07:20.963Z,18.44
2022-09-15T05:09:49.307Z,18.45
2022-09-15T05:12:17.649Z,18.46
2022-09-15T05:14:45.973Z,18.39
2022-09-15T05:17:14.345Z,18.34
2022-09-15T05:19:44.023Z,18.30
2022-09-15T05:22:12.452Z,18.30
2022-09-15T05:24:40.755Z,18.21
2022-09-15T05:27:09.292Z,18.17
2022-09-15T05:29:37.596Z,18.24
2022-09-15T05:32:06.232Z,18.34
2022-09-15T05:34:34.615Z,18.43
2022-09-15T05:37:05.300Z,18.49
2022-09-15T05:39:33.640Z,18.51
2022-09-15T05:42:01.947Z,18.52
2022-09-15T05:44:31.580Z,18.47
2022-09-15T05:47:00.005Z,18.42
2022-09-15T05:49:29.489Z,18.43
2022-09-15T05:51:57.816Z,18.44
2022-09-15T05:54:28.418Z,18.50
2022-09-15T05:56:56.746Z,18.53
2022-09-15T05:59:25.067Z,18.54
2022-09-15T06:01:53.715Z,18.52
2022-09-15T06:04:22.054Z,18.47
2022-09-15T06:06:50.325Z,18.45
2022-09-15T06:09:19.028Z,18.41
2022-09-15T06:11:48.763Z,18.43
2022-09-15T06:14:17.200Z,18.45
2022-09-15T06:16:45.810Z,18.45
2022-09-15T06:19:14.848Z,18.47
2022-09-15T06:21:43.231Z,18.53
2022-09-15T06:24:13.393Z,18.56
2022-09-15T06:26:41.770Z,18.62
2022-09-15T06:29:13.864Z,18.67
2022-09-15T06:31:42.440Z,18.70
2022-09-15T06:34:11.330Z,18.74
2022-09-15T06:36:40.344Z,18.74
2022-09-15T06:39:10.035Z,18.76
2022-09-15T06:42:00.759Z,18.78
2022-09-15T06:44:28.234Z,18.84
2022-09-15T06:46:56.576Z,18.86
2022-09-15T06:49:26.004Z,18.87
2022-09-15T06:51:54.540Z,18.88
2022-09-15T06:54:22.851Z,18.85
2022-09-15T06:56:51.280Z,18.91
2022-09-15T06:59:19.579Z,18.95
2022-09-15T07:01:53.561Z,19.04
2022-09-15T07:04:22.955Z,19.10
2022-09-15T07:06:51.576Z,19.15
2022-09-15T07:09:20.153Z,19.23
2022-09-15T07:11:48.631Z,19.30
2022-09-15T07:14:16.978Z,19.34
2022-09-15T07:16:45.429Z,19.42
2022-09-15T07:19:15.479Z,19.51
2022-09-15T07:21:43.846Z,19.57
2022-09-15T07:24:13.079Z,19.63
2022-09-15T07:26:42.340Z,19.68
2022-09-15T07:29:13.016Z,19.70
2022-09-15T07:31:41.578Z,19.67
2022-09-15T07:34:10.263Z,19.65
2022-09-15T07:36:40.147Z,19.62
2022-09-15T07:39:08.479Z,19.60
2022-09-15T07:41:36.935Z,19.60
2022-09-15T07:44:08.042Z,19.59
2022-09-15T07:46:36.435Z,19.58
2022-09-15T07:49:08.224Z,19.58
2022-09-15T07:51:36.746Z,19.61
2022-09-15T07:54:07.088Z,19.63
2022-09-15T07:56:35.513Z,19.67
2022-09-15T07:59:04.111Z,19.70
2022-09-15T08:01:32.542Z,19.73
2022-09-15T08:04:00.938Z,19.76
2022-09-15T08:06:29.480Z,19.81
2022-09-15T08:09:00.748Z,19.87
2022-09-15T08:11:31.015Z,19.95
2022-09-15T08:14:03.016Z,20.02
2022-09-15T08:16:31.953Z,20.09
2022-09-15T08:19:00.801Z,20.14
2022-09-15T08:21:29.432Z,20.20
2022-09-15T08:23:59.525Z,20.24
2022-09-15T08:26:31.559Z,20.29
2022-09-15T08:29:00.795Z,20.36
2022-09-15T08:31:29.346Z,20.39
2022-09-15T08:33:57.782Z,20.44
2022-09-15T08:36:28.528Z,20.50
2022-09-15T08:38:57.258Z,20.57
2022-09-15T08:41:30.546Z,20.66
2022-09-15T08:44:05.673Z,20.75
2022-09-15T08:46:41.613Z,20.82
2022-09-15T08:49:23.583Z,20.91
2022-09-15T08:52:04.837Z,20.98
2022-09-15T08:54:34.888Z,21.02
2022-09-15T08:57:06.112Z,21.06
2022-09-15T08:59:36.976Z,21.08
2022-09-15T09:02:41.602Z,21.14
2022-09-15T09:05:21.793Z,21.16
2022-09-15T09:08:04.095Z,21.16
2022-09-15T09:10:43.097Z,21.19
2022-09-15T09:13:24.505Z,21.22
2022-09-15T09:16:11.645Z,21.29
2022-09-15T09:19:04.414Z,21.36
2022-09-15T09:21:36.442Z,21.39
2022-09-15T09:24:07.531Z,21.46
2022-09-15T09:26:38.272Z,21.49
2022-09-15T09:29:13.824Z,21.56
2022-09-15T09:31:46.778Z,21.59
2022-09-15T09:34:24.037Z,21.61
2022-09-15T09:36:55.984Z,21.62
2022-09-15T09:39:24.342Z,21.64
2022-09-15T09:41:53.144Z,21.65
2022-09-15T09:44:31.729Z,21.67
2022-09-15T09:47:02.892Z,21.67
2022-09-15T09:49:35.408Z,21.69
2022-09-15T09:52:04.983Z,21.68
2022-09-15T09:54:35.546Z,21.71
2022-09-15T09:57:28.043Z,21.70
2022-09-15T09:59:56.710Z,21.70
2022-09-15T10:02:28.020Z,21.68
2022-09-15T10:05:17.384Z,21.69
2022-09-15T10:07:45.839Z,21.70
2022-09-15T10:10:21.780Z,21.69
2022-09-15T10:12:51.414Z,21.69
2022-09-15T10:15:25.264Z,21.69
2022-09-15T10:17:56.903Z,21.71
2022-09-15T10:20:32.490Z,21.73
2022-09-15T10:23:05.731Z,21.73
2022-09-15T10:28:28.635Z,21.79
2022-09-15T10:31:02.562Z,21.84
2022-09-15T10:33:35.145Z,21.86
2022-09-15T10:36:07.301Z,21.88
2022-09-15T10:38:42.426Z,21.89
2022-09-15T10:41:29.319Z,21.92
2022-09-15T10:44:15.032Z,21.94
2022-09-15T10:46:51.734Z,21.93
2022-09-15T10:49:34.737Z,21.92
2022-09-15T10:52:14.089Z,21.93
2022-09-15T10:54:59.015Z,21.90
2022-09-15T10:57:44.486Z,21.88
2022-09-15T11:00:17.932Z,21.82
2022-09-15T11:03:23.892Z,21.82
2022-09-15T11:06:06.331Z,21.88
2022-09-15T11:08:54.206Z,21.90
2022-09-15T11:11:35.751Z,21.88
2022-09-15T11:14:19.331Z,21.86
2022-09-15T11:17:00.842Z,21.80
2022-09-15T11:19:45.491Z,21.77
2022-09-15T11:22:19.595Z,21.73
2022-09-15T11:24:50.983Z,21.73
2022-09-15T11:27:24.667Z,21.85
2022-09-15T11:30:02.928Z,21.90
2022-09-15T11:32:38.243Z,21.95
2022-09-15T11:35:33.863Z,22.01
2022-09-15T11:38:14.937Z,22.09
2022-09-15T11:40:48.939Z,22.23
2022-09-15T11:43:25.395Z,22.44
2022-09-15T11:45:57.824Z,22.69
2022-09-15T11:48:32.089Z,22.88
2022-09-15T11:51:03.389Z,22.81
2022-09-15T11:53:39.377Z,22.69
2022-09-15T11:56:19.546Z,22.59
2022-09-15T11:59:03.720Z,22.53
2022-09-15T12:01:36.502Z,22.75
2022-09-15T12:04:09.656Z,23.02
2022-09-15T12:06:45.814Z,23.10
2022-09-15T12:09:18.660Z,23.12
2022-09-15T12:11:49.743Z,23.11
2022-09-15T12:14:29.744Z,23.03
2022-09-15T12:16:59.546Z,23.03
2022-09-15T12:19:45.428Z,22.92
2022-09-15T12:22:20.243Z,22.92
2022-09-15T12:25:00.956Z,22.92
2022-09-15T12:27:30.103Z,22.86
2022-09-15T12:30:00.955Z,22.79
2022-09-15T12:32:30.218Z,22.76
2022-09-15T12:35:04.273Z,22.89
2022-09-15T12:37:40.824Z,23.00
2022-09-15T12:40:27.817Z,23.05
2022-09-15T12:42:56.727Z,23.15
2022-09-15T12:45:29.117Z,23.19
2022-09-15T12:48:03.100Z,23.18
2022-09-15T12:50:34.071Z,23.11
2022-09-15T12:53:04.691Z,23.09
2022-09-15T12:55:37.492Z,23.04
2022-09-15T12:58:09.691Z,23.03
2022-09-15T13:00:49.962Z,23.03
2022-09-15T13:03:53.782Z,23.08
2022-09-15T13:06:25.237Z,23.10
2022-09-15T13:08:55.707Z,23.08
2022-09-15T13:11:39.065Z,23.06
2022-09-15T13:14:27.865Z,23.03
2022-09-15T13:17:01.034Z,22.95
2022-09-15T13:19:41.193Z,22.89
2022-09-15T13:22:23.385Z,22.87
2022-09-15T13:24:59.266Z,22.90
2022-09-15T13:27:35.592Z,23.14
2022-09-15T13:30:13.100Z,23.46
2022-09-15T13:32:47.969Z,23.63
2022-09-15T13:35:34.913Z,23.83
2022-09-15T13:38:43.080Z,23.95
2022-09-15T13:41:43.017Z,23.98
2022-09-15T13:44:27.553Z,24.04
2022-09-15T13:47:18.157Z,24.14
2022-09-15T13:49:52.503Z,24.14
2022-09-15T13:52:58.310Z,24.03
2022-09-15T13:55:31.246Z,23.94
2022-09-15T14:00:59.866Z,23.78
2022-09-15T14:03:37.003Z,23.61
2022-09-15T14:06:13.544Z,23.63
2022-09-15T14:08:44.944Z,23.74
2022-09-15T14:11:16.996Z,23.80
2022-09-15T14:13:48.785Z,23.64
2022-09-15T14:16:29.222Z,23.46
2022-09-15T14:19:00.132Z,23.39
2022-09-15T14:21:30.780Z,23.33
2022-09-15T14:24:01.551Z,23.22
2022-09-15T14:26:34.143Z,23.13
2022-09-15T14:29:05.815Z,23.08
2022-09-15T14:31:36.903Z,23.00
2022-09-15T14:34:09.817Z,22.96
2022-09-15T14:36:38.328Z,22.95
2022-09-15T14:39:17.838Z,23.01
2022-09-15T14:41:48.532Z,23.12
2022-09-15T14:47:21.710Z,23.29
2022-09-15T14:49:50.734Z,23.33
2022-09-15T14:52:28.065Z,23.46
2022-09-15T14:55:01.485Z,23.54
2022-09-15T14:57:38.345Z,23.37
2022-09-15T15:00:11.206Z,23.47
2022-09-15T15:02:54.815Z,23.58
2022-09-15T15:05:27.227Z,23.64
2022-09-15T15:07:56.705Z,23.76
2022-09-15T15:10:32.204Z,23.78
2022-09-15T15:13:11.224Z,23.71
2022-09-15T15:15:41.039Z,23.78
2022-09-15T15:18:38.946Z,23.79
2022-09-15T15:21:08.014Z,23.76
2022-09-15T15:23:46.916Z,23.73
2022-09-15T15:26:27.322Z,23.70
2022-09-15T15:28:57.002Z,23.66
2022-09-15T15:31:27.361Z,23.60
2022-09-15T15:33:59.302Z,23.52
2022-09-15T15:36:30.000Z,23.44
2022-09-15T15:39:01.737Z,23.33
2022-09-15T15:41:31.751Z,23.22
2022-09-15T15:44:07.863Z,23.04
2022-09-15T15:46:50.918Z,22.80
2022-09-15T15:49:21.148Z,22.60
2022-09-15T15:51:50.177Z,22.45
2022-09-15T15:54:18.727Z,22.34
2022-09-15T15:56:47.531Z,22.23
2022-09-15T15:59:18.020Z,22.17
2022-09-15T16:01:50.666Z,22.13
2022-09-15T16:04:19.225Z,21.97
2022-09-15T16:06:48.160Z,21.66
2022-09-15T16:09:17.383Z,21.40
2022-09-15T16:11:45.884Z,21.09
2022-09-15T16:14:14.606Z,20.82
2022-09-15T16:16:44.576Z,20.53
2022-09-15T16:19:13.671Z,20.20
2022-09-15T16:21:43.468Z,19.26
2022-09-15T16:24:14.924Z,18.69
2022-09-15T16:26:43.878Z,18.59
2022-09-15T16:29:12.807Z,18.58
2022-09-15T16:31:42.986Z,18.64
2022-09-15T16:34:17.597Z,18.69
2022-09-15T16:36:45.944Z,18.73
2022-09-15T16:39:14.299Z,18.68
2022-09-15T16:41:42.819Z,18.66
2022-09-15T16:44:19.837Z,18.68
2022-09-15T16:46:48.409Z,18.65
2022-09-15T16:49:18.189Z,18.68
2022-09-15T16:51:46.616Z,18.69
2022-09-15T16:54:16.585Z,18.61
2022-09-15T16:56:46.140Z,18.54
2022-09-15T16:59:15.276Z,18.41
2022-09-15T17:01:43.651Z,18.29
2022-09-15T17:04:16.455Z,18.21
2022-09-15T17:06:46.237Z,18.24
2022-09-15T17:09:14.966Z,18.38
2022-09-15T17:11:43.311Z,18.51
2022-09-15T17:14:16.001Z,18.59
2022-09-15T17:16:47.266Z,18.53
2022-09-15T17:19:15.773Z,18.44
2022-09-15T17:21:44.110Z,18.47
2022-09-15T17:24:14.231Z,18.52
2022-09-15T17:26:42.616Z,18.49
2022-09-15T17:29:11.113Z,18.58
2022-09-15T17:31:39.429Z,18.68
2022-09-15T17:34:15.203Z,18.82
2022-09-15T17:36:43.520Z,18.95
2022-09-15T17:39:13.715Z,19.03
2022-09-15T17:41:44.568Z,19.05
2022-09-15T17:44:12.971Z,19.11
2022-09-15T17:46:41.423Z,19.16
2022-09-15T17:49:09.880Z,19.14
2022-09-15T17:51:38.337Z,18.99
2022-09-15T17:54:07.466Z,18.92
2022-09-15T17:56:37.244Z,18.65
2022-09-15T17:59:05.567Z,18.27
2022-09-15T18:01:34.023Z,17.97
2022-09-15T18:04:02.858Z,17.78
2022-09-15T18:06:31.261Z,17.70
2022-09-15T18:08:59.808Z,17.58
2022-09-15T18:11:28.875Z,17.57
2022-09-15T18:13:59.622Z,17.58
2022-09-15T18:16:27.951Z,17.59
2022-09-15T18:18:56.308Z,17.63
2022-09-15T18:21:28.956Z,17.54
2022-09-15T18:23:57.611Z,17.55
2022-09-15T18:26:26.852Z,17.49
2022-09-15T18:28:56.885Z,17.51
2022-09-15T18:31:27.434Z,17.58
2022-09-15T18:33:55.774Z,17.57
2022-09-15T18:36:24.115Z,17.55
2022-09-15T18:38:52.603Z,17.55
2022-09-15T18:41:20.994Z,17.51
2022-09-15T18:43:49.908Z,17.55
2022-09-15T18:46:18.588Z,17.59
2022-09-15T18:48:48.658Z,17.56
2022-09-15T18:51:24.118Z,17.55
2022-09-15T18:53:58.460Z,17.49
2022-09-15T18:56:26.809Z,17.52
2022-09-15T18:58:55.627Z,17.56
2022-09-15T19:01:24.782Z,17.52
2022-09-15T19:03:55.068Z,17.46
2022-09-15T19:06:23.816Z,17.43
2022-09-15T19:08:52.579Z,17.44
2022-09-15T19:11:21.451Z,17.45
2022-09-15T19:13:49.939Z,17.43
2022-09-15T19:16:22.683Z,17.44
2022-09-15T19:18:51.943Z,17.36
2022-09-15T19:21:27.125Z,17.25
2022-09-15T19:23:58.856Z,17.20
2022-09-15T19:26:29.446Z,17.22
2022-09-15T19:28:59.008Z,17.16
2022-09-15T19:31:28.046Z,17.11
2022-09-15T19:33:56.857Z,17.05
2022-09-15T19:36:28.969Z,17.04
2022-09-15T19:38:58.324Z,17.03
2022-09-15T19:41:27.339Z,17.01
2022-09-15T19:43:55.924Z,16.97
2022-09-15T19:46:26.614Z,17.04
2022-09-15T19:48:55.679Z,17.10
2022-09-15T19:51:26.622Z,17.15
2022-09-15T19:53:56.402Z,17.18
2022-09-15T19:56:30.136Z,17.19
2022-09-15T19:59:00.154Z,17.28
2022-09-15T20:01:31.081Z,17.44
2022-09-15T20:04:02.073Z,17.54
2022-09-15T20:06:35.629Z,17.56
2022-09-15T20:09:05.137Z,17.58
2022-09-15T20:11:34.727Z,17.56
2022-09-15T20:14:04.058Z,17.54
2022-09-15T20:16:32.677Z,17.56
2022-09-15T20:19:03.063Z,17.54
2022-09-15T20:21:51.060Z,17.57
2022-09-15T20:24:20.741Z,17.62
2022-09-15T20:26:50.211Z,17.64
2022-09-15T20:29:19.765Z,17.73
2022-09-15T20:31:49.157Z,17.77
2022-09-15T20:34:18.714Z,17.74
2022-09-15T20:36:48.968Z,17.75
2022-09-15T20:39:19.512Z,17.81
2022-09-15T20:41:48.153Z,17.83
2022-09-15T20:44:17.070Z,17.87
2022-09-15T20:46:45.593Z,17.90
2022-09-15T20:49:14.520Z,17.95
2022-09-15T20:51:43.497Z,17.95
2022-09-15T20:54:13.871Z,17.96
2022-09-15T20:56:42.650Z,17.95
2022-09-15T20:59:15.264Z,17.94
2022-09-15T21:01:44.691Z,17.95
2022-09-15T21:04:13.704Z,17.89
2022-09-15T21:06:42.672Z,17.84
2022-09-15T21:09:11.535Z,17.84
2022-09-15T21:11:43.512Z,17.83
2022-09-15T21:14:14.287Z,17.85
2022-09-15T21:16:43.406Z,17.93
2022-09-15T21:19:13.215Z,17.96
2022-09-15T21:21:41.894Z,18.00
2022-09-15T21:24:10.881Z,18.03
2022-09-15T21:26:56.260Z,18.06
2022-09-15T21:29:25.157Z,18.06
2022-09-15T21:31:54.046Z,17.88
2022-09-15T21:34:22.707Z,17.66
2022-09-15T21:36:53.786Z,17.56
2022-09-15T21:39:22.469Z,17.57
2022-09-15T21:41:52.821Z,17.50
2022-09-15T21:44:21.348Z,17.45
2022-09-15T21:46:50.156Z,17.39
2022-09-15T21:49:19.393Z,17.45
2022-09-15T21:51:48.130Z,17.46
2022-09-15T21:54:16.967Z,17.41
2022-09-15T21:56:45.723Z,17.46
2022-09-15T21:59:18.292Z,17.51
2022-09-15T22:01:47.048Z,17.54
2022-09-15T22:04:15.992Z,17.50
2022-09-15T22:06:46.971Z,17.48
2022-09-15T22:09:17.513Z,17.45
2022-09-15T22:11:46.345Z,17.41
2022-09-15T22:14:16.515Z,17.38
2022-09-15T22:16:45.066Z,17.39
2022-09-15T22:19:14.244Z,17.41
2022-09-15T22:21:42.921Z,17.44
2022-09-15T22:24:13.552Z,17.41
2022-09-15T22:26:43.475Z,17.40
2022-09-15T22:29:12.532Z,17.41
2022-09-15T22:31:42.824Z,17.39
2022-09-15T22:34:11.977Z,17.37
2022-09-15T22:36:40.741Z,17.33
2022-09-15T22:39:09.591Z,17.36
2022-09-15T22:41:39.797Z,17.42
2022-09-15T22:44:17.766Z,17.45
2022-09-15T22:46:49.787Z,17.50
2022-09-15T22:49:18.426Z,17.47
2022-09-15T22:51:47.047Z,17.52
2022-09-15T22:54:16.880Z,17.59
2022-09-15T22:56:47.456Z,17.57
2022-09-15T22:59:17.041Z,17.58
2022-09-15T23:01:47.318Z,17.61
2022-09-15T23:04:16.548Z,17.65
2022-09-15T23:06:45.187Z,17.67
2022-09-15T23:09:13.996Z,17.68
2022-09-15T23:11:43.447Z,17.65
2022-09-15T23:14:15.560Z,17.58
2022-09-15T23:16:44.975Z,17.57
2022-09-15T23:19:15.671Z,17.61
2022-09-15T23:21:44.466Z,17.65
2022-09-15T23:24:13.993Z,17.68
2022-09-15T23:26:42.547Z,17.71
2022-09-15T23:29:11.339Z,17.75
2022-09-15T23:31:40.017Z,17.79
2022-09-15T23:34:08.845Z,17.76
2022-09-15T23:36:38.864Z,17.73
2022-09-15T23:39:07.519Z,17.72
2022-09-15T23:41:36.838Z,17.63
2022-09-15T23:44:05.535Z,17.52
2022-09-15T23:46:35.070Z,17.46
2022-09-15T23:49:03.888Z,17.41
2022-09-15T23:51:32.748Z,17.40
2022-09-15T23:54:04.689Z,17.33
2022-09-15T23:56:33.802Z,17.26
2022-09-15T23:59:03.225Z,17.23
